sensor_id;sensor_type;location;lat;lon;timestamp;P1;durP1;ratioP1;P2;durP2;ratioP2
23360;SDS011;11852;50.082;18.554;2023-04-12T00:00:37;6.0;;;3.0;;
23360;SDS011;11852;50.082;18.554;2023-04-12T00:01:44;6.0;;;3.0;;
23360;SDS011;11852;50.082;18.554;2023-04-12T00:02:51;5.0;;;2.0;;
23360;SDS011;11852;50.082;18.554;2023-04-12T00:03:58;6.0;;;2.0;;
23360;SDS011;11852;50.082;18.554;2023-04-12T00:05:06;6.0;;;2.0;;
23360;SDS011;11852;50.082;18.554;2023-04-12T00:06:13;5.0;;;2.0;;
23360;SDS011;11852;50.082;18.554;2023-04-12T00:07:20;6.0;;;2.0;;
23360;SDS011;11852;50.082;18.554;2023-04-12T00:08:27;6.0;;;2.0;;
23360;SDS011;11852;50.082;18.554;2023-04-12T00:09:34;6.0;;;2.0;;
23360;SDS011;11852;50.082;18.554;2023-04-12T00:10:40;6.0;;;2.0;;
23360;SDS011;11852;50.082;18.554;2023-04-12T00:11:47;7.0;;;2.0;;
23360;SDS011;11852;50.082;18.554;2023-04-12T00:12:54;6.0;;;2.0;;
23360;SDS011;11852;50.082;18.554;2023-04-12T00:14:01;5.0;;;2.0;;
23360;SDS011;11852;50.082;18.554;2023-04-12T00:15:08;6.0;;;2.0;;
23360;SDS011;11852;50.082;18.554;2023-04-12T00:16:15;5.0;;;2.0;;
23360;SDS011;11852;50.082;18.554;2023-04-12T00:17:22;6.0;;;3.0;;
23360;SDS011;11852;50.082;18.554;2023-04-12T00:18:29;6.0;;;3.0;;
23360;SDS011;11852;50.082;18.554;2023-04-12T00:19:36;8.0;;;3.0;;
23360;SDS011;11852;50.082;18.554;2023-04-12T00:20:43;6.0;;;3.0;;
23360;SDS011;11852;50.082;18.554;2023-04-12T00:21:50;6.0;;;2.0;;
23360;SDS011;11852;50.082;18.554;2023-04-12T00:22:58;6.0;;;2.0;;
23360;SDS011;11852;50.082;18.554;2023-04-12T00:24:05;6.0;;;3.0;;
23360;SDS011;11852;50.082;18.554;2023-04-12T00:25:12;6.0;;;3.0;;
23360;SDS011;11852;50.082;18.554;2023-04-12T00:26:19;6.0;;;3.0;;
23360;SDS011;11852;50.082;18.554;2023-04-12T00:27:26;6.0;;;3.0;;
23360;SDS011;11852;50.082;18.554;2023-04-12T00:28:32;7.0;;;3.0;;
23360;SDS011;11852;50.082;18.554;2023-04-12T00:29:40;6.0;;;3.0;;
23360;SDS011;11852;50.082;18.554;2023-04-12T00:30:47;7.0;;;3.0;;
23360;SDS011;11852;50.082;18.554;2023-04-12T00:31:53;6.0;;;3.0;;
23360;SDS011;11852;50.082;18.554;2023-04-12T00:33:00;6.0;;;3.0;;
23360;SDS011;11852;50.082;18.554;2023-04-12T00:34:07;8.0;;;4.0;;
23360;SDS011;11852;50.082;18.554;2023-04-12T00:35:14;7.0;;;3.0;;
23360;SDS011;11852;50.082;18.554;2023-04-12T00:36:21;7.0;;;3.0;;
23360;SDS011;11852;50.082;18.554;2023-04-12T00:37:28;8.0;;;4.0;;
23360;SDS011;11852;50.082;18.554;2023-04-12T00:38:35;7.0;;;3.0;;
23360;SDS011;11852;50.082;18.554;2023-04-12T00:39:42;7.0;;;3.0;;
23360;SDS011;11852;50.082;18.554;2023-04-12T00:40:49;8.0;;;3.0;;
23360;SDS011;11852;50.082;18.554;2023-04-12T00:41:56;8.0;;;3.0;;
23360;SDS011;11852;50.082;18.554;2023-04-12T00:43:02;7.0;;;3.0;;
23360;SDS011;11852;50.082;18.554;2023-04-12T00:44:09;8.0;;;3.0;;
23360;SDS011;11852;50.082;18.554;2023-04-12T00:45:16;7.0;;;3.0;;
23360;SDS011;11852;50.082;18.554;2023-04-12T00:46:23;7.0;;;3.0;;
23360;SDS011;11852;50.082;18.554;2023-04-12T00:47:30;8.0;;;3.0;;
23360;SDS011;11852;50.082;18.554;2023-04-12T00:48:37;8.0;;;4.0;;
23360;SDS011;11852;50.082;18.554;2023-04-12T00:49:44;6.0;;;3.0;;
23360;SDS011;11852;50.082;18.554;2023-04-12T00:50:51;7.0;;;4.0;;
23360;SDS011;11852;50.082;18.554;2023-04-12T00:53:12;8.0;;;4.0;;
23360;SDS011;11852;50.082;18.554;2023-04-12T00:54:18;6.0;;;4.0;;
23360;SDS011;11852;50.082;18.554;2023-04-12T00:55:25;7.0;;;3.0;;
23360;SDS011;11852;50.082;18.554;2023-04-12T00:56:32;7.0;;;3.0;;
23360;SDS011;11852;50.082;18.554;2023-04-12T00:57:38;7.0;;;3.0;;
23360;SDS011;11852;50.082;18.554;2023-04-12T00:58:45;8.0;;;4.0;;
23360;SDS011;11852;50.082;18.554;2023-04-12T00:59:52;8.0;;;3.0;;
23360;SDS011;11852;50.082;18.554;2023-04-12T01:00:59;7.0;;;3.0;;
23360;SDS011;11852;50.082;18.554;2023-04-12T01:02:06;7.0;;;3.0;;
23360;SDS011;11852;50.082;18.554;2023-04-12T01:03:13;7.0;;;3.0;;
23360;SDS011;11852;50.082;18.554;2023-04-12T01:04:20;6.0;;;3.0;;
23360;SDS011;11852;50.082;18.554;2023-04-12T01:05:27;7.0;;;3.0;;
23360;SDS011;11852;50.082;18.554;2023-04-12T01:09:09;8.0;;;4.0;;
23360;SDS011;11852;50.082;18.554;2023-04-12T01:11:31;8.0;;;3.0;;
23360;SDS011;11852;50.082;18.554;2023-04-12T01:16:17;7.0;;;3.0;;
23360;SDS011;11852;50.082;18.554;2023-04-12T01:17:25;8.0;;;3.0;;
23360;SDS011;11852;50.082;18.554;2023-04-12T01:18:32;7.0;;;3.0;;
23360;SDS011;11852;50.082;18.554;2023-04-12T01:25:55;9.0;;;4.0;;
23360;SDS011;11852;50.082;18.554;2023-04-12T01:27:04;8.0;;;4.0;;
23360;SDS011;11852;50.082;18.554;2023-04-12T01:28:12;8.0;;;4.0;;
23360;SDS011;11852;50.082;18.554;2023-04-12T01:29:18;8.0;;;4.0;;
23360;SDS011;11852;50.082;18.554;2023-04-12T01:30:25;8.0;;;4.0;;
23360;SDS011;11852;50.082;18.554;2023-04-12T01:31:32;8.0;;;4.0;;
23360;SDS011;11852;50.082;18.554;2023-04-12T01:32:39;8.0;;;4.0;;
23360;SDS011;11852;50.082;18.554;2023-04-12T01:33:46;8.0;;;4.0;;
23360;SDS011;11852;50.082;18.554;2023-04-12T01:34:53;8.0;;;4.0;;
23360;SDS011;11852;50.082;18.554;2023-04-12T01:36:00;9.0;;;4.0;;
23360;SDS011;11852;50.082;18.554;2023-04-12T01:37:06;8.0;;;4.0;;
23360;SDS011;11852;50.082;18.554;2023-04-12T01:38:13;9.0;;;4.0;;
23360;SDS011;11852;50.082;18.554;2023-04-12T01:39:20;9.0;;;5.0;;
23360;SDS011;11852;50.082;18.554;2023-04-12T01:40:27;9.0;;;4.0;;
23360;SDS011;11852;50.082;18.554;2023-04-12T01:41:37;9.0;;;4.0;;
23360;SDS011;11852;50.082;18.554;2023-04-12T01:42:41;8.0;;;4.0;;
23360;SDS011;11852;50.082;18.554;2023-04-12T01:43:47;11.0;;;5.0;;
23360;SDS011;11852;50.082;18.554;2023-04-12T01:44:54;10.0;;;5.0;;
23360;SDS011;11852;50.082;18.554;2023-04-12T01:46:01;10.0;;;4.0;;
23360;SDS011;11852;50.082;18.554;2023-04-12T01:47:08;8.0;;;4.0;;
23360;SDS011;11852;50.082;18.554;2023-04-12T01:48:15;10.0;;;4.0;;
23360;SDS011;11852;50.082;18.554;2023-04-12T01:49:22;9.0;;;5.0;;
23360;SDS011;11852;50.082;18.554;2023-04-12T01:50:32;9.0;;;4.0;;
23360;SDS011;11852;50.082;18.554;2023-04-12T01:51:49;10.0;;;4.0;;
23360;SDS011;11852;50.082;18.554;2023-04-12T01:53:13;10.0;;;4.0;;
23360;SDS011;11852;50.082;18.554;2023-04-12T01:55:23;10.0;;;5.0;;
23360;SDS011;11852;50.082;18.554;2023-04-12T01:56:30;10.0;;;5.0;;
23360;SDS011;11852;50.082;18.554;2023-04-12T01:57:37;9.0;;;5.0;;
23360;SDS011;11852;50.082;18.554;2023-04-12T01:58:45;10.0;;;5.0;;
23360;SDS011;11852;50.082;18.554;2023-04-12T01:59:51;10.0;;;5.0;;
23360;SDS011;11852;50.082;18.554;2023-04-12T02:00:58;9.0;;;4.0;;
23360;SDS011;11852;50.082;18.554;2023-04-12T02:02:05;9.0;;;5.0;;
23360;SDS011;11852;50.082;18.554;2023-04-12T02:03:12;9.0;;;4.0;;
23360;SDS011;11852;50.082;18.554;2023-04-12T02:04:18;9.0;;;4.0;;
23360;SDS011;11852;50.082;18.554;2023-04-12T02:05:25;9.0;;;5.0;;
23360;SDS011;11852;50.082;18.554;2023-04-12T02:06:32;9.0;;;5.0;;
23360;SDS011;11852;50.082;18.554;2023-04-12T02:07:39;9.0;;;5.0;;
23360;SDS011;11852;50.082;18.554;2023-04-12T02:08:46;9.0;;;5.0;;
23360;SDS011;11852;50.082;18.554;2023-04-12T02:09:53;9.0;;;5.0;;
23360;SDS011;11852;50.082;18.554;2023-04-12T02:11:00;9.0;;;5.0;;
23360;SDS011;11852;50.082;18.554;2023-04-12T02:12:07;11.0;;;5.0;;
23360;SDS011;11852;50.082;18.554;2023-04-12T02:13:13;9.0;;;4.0;;
23360;SDS011;11852;50.082;18.554;2023-04-12T02:14:20;10.0;;;5.0;;
23360;SDS011;11852;50.082;18.554;2023-04-12T02:15:27;10.0;;;5.0;;
23360;SDS011;11852;50.082;18.554;2023-04-12T02:16:34;8.0;;;5.0;;
23360;SDS011;11852;50.082;18.554;2023-04-12T02:17:41;12.0;;;5.0;;
23360;SDS011;11852;50.082;18.554;2023-04-12T02:18:48;11.0;;;5.0;;
23360;SDS011;11852;50.082;18.554;2023-04-12T02:19:58;9.0;;;5.0;;
23360;SDS011;11852;50.082;18.554;2023-04-12T02:21:05;10.0;;;5.0;;
23360;SDS011;11852;50.082;18.554;2023-04-12T02:22:12;10.0;;;6.0;;
23360;SDS011;11852;50.082;18.554;2023-04-12T02:23:19;11.0;;;6.0;;
23360;SDS011;11852;50.082;18.554;2023-04-12T02:24:26;11.0;;;6.0;;
23360;SDS011;11852;50.082;18.554;2023-04-12T02:25:33;11.0;;;6.0;;
23360;SDS011;11852;50.082;18.554;2023-04-12T02:26:40;11.0;;;6.0;;
23360;SDS011;11852;50.082;18.554;2023-04-12T02:27:47;11.0;;;6.0;;
23360;SDS011;11852;50.082;18.554;2023-04-12T02:28:54;10.0;;;6.0;;
23360;SDS011;11852;50.082;18.554;2023-04-12T02:30:01;10.0;;;6.0;;
23360;SDS011;11852;50.082;18.554;2023-04-12T02:31:08;12.0;;;6.0;;
23360;SDS011;11852;50.082;18.554;2023-04-12T02:32:14;10.0;;;6.0;;
23360;SDS011;11852;50.082;18.554;2023-04-12T02:33:22;11.0;;;6.0;;
23360;SDS011;11852;50.082;18.554;2023-04-12T02:34:28;12.0;;;6.0;;
23360;SDS011;11852;50.082;18.554;2023-04-12T02:35:35;12.0;;;6.0;;
23360;SDS011;11852;50.082;18.554;2023-04-12T02:36:48;11.0;;;6.0;;
23360;SDS011;11852;50.082;18.554;2023-04-12T02:37:52;12.0;;;6.0;;
23360;SDS011;11852;50.082;18.554;2023-04-12T02:38:59;12.0;;;6.0;;
23360;SDS011;11852;50.082;18.554;2023-04-12T02:40:06;11.0;;;6.0;;
23360;SDS011;11852;50.082;18.554;2023-04-12T02:41:17;11.0;;;6.0;;
23360;SDS011;11852;50.082;18.554;2023-04-12T02:42:26;13.0;;;6.0;;
23360;SDS011;11852;50.082;18.554;2023-04-12T02:43:33;11.0;;;6.0;;
23360;SDS011;11852;50.082;18.554;2023-04-12T02:44:40;11.0;;;6.0;;
23360;SDS011;11852;50.082;18.554;2023-04-12T02:45:47;12.0;;;6.0;;
23360;SDS011;11852;50.082;18.554;2023-04-12T02:46:54;12.0;;;7.0;;
23360;SDS011;11852;50.082;18.554;2023-04-12T02:48:01;13.0;;;7.0;;
23360;SDS011;11852;50.082;18.554;2023-04-12T02:49:08;12.0;;;7.0;;
23360;SDS011;11852;50.082;18.554;2023-04-12T02:50:14;12.0;;;6.0;;
23360;SDS011;11852;50.082;18.554;2023-04-12T02:51:21;13.0;;;7.0;;
23360;SDS011;11852;50.082;18.554;2023-04-12T02:52:28;11.0;;;7.0;;
23360;SDS011;11852;50.082;18.554;2023-04-12T02:53:35;11.0;;;6.0;;
23360;SDS011;11852;50.082;18.554;2023-04-12T02:54:42;12.0;;;6.0;;
23360;SDS011;11852;50.082;18.554;2023-04-12T02:55:49;12.0;;;7.0;;
23360;SDS011;11852;50.082;18.554;2023-04-12T02:56:56;13.0;;;6.0;;
23360;SDS011;11852;50.082;18.554;2023-04-12T02:58:03;12.0;;;7.0;;
23360;SDS011;11852;50.082;18.554;2023-04-12T02:59:09;12.0;;;7.0;;
23360;SDS011;11852;50.082;18.554;2023-04-12T03:00:16;12.0;;;7.0;;
23360;SDS011;11852;50.082;18.554;2023-04-12T03:01:23;12.0;;;7.0;;
23360;SDS011;11852;50.082;18.554;2023-04-12T03:02:30;12.0;;;7.0;;
23360;SDS011;11852;50.082;18.554;2023-04-12T03:03:37;11.0;;;7.0;;
23360;SDS011;11852;50.082;18.554;2023-04-12T03:04:44;12.0;;;7.0;;
23360;SDS011;11852;50.082;18.554;2023-04-12T03:05:51;13.0;;;7.0;;
23360;SDS011;11852;50.082;18.554;2023-04-12T03:06:58;13.0;;;7.0;;
23360;SDS011;11852;50.082;18.554;2023-04-12T03:08:05;12.0;;;6.0;;
23360;SDS011;11852;50.082;18.554;2023-04-12T03:09:12;12.0;;;6.0;;
23360;SDS011;11852;50.082;18.554;2023-04-12T03:10:18;12.0;;;6.0;;
23360;SDS011;11852;50.082;18.554;2023-04-12T03:11:25;11.0;;;6.0;;
23360;SDS011;11852;50.082;18.554;2023-04-12T03:12:32;11.0;;;6.0;;
23360;SDS011;11852;50.082;18.554;2023-04-12T03:13:39;11.0;;;6.0;;
23360;SDS011;11852;50.082;18.554;2023-04-12T03:14:46;11.0;;;6.0;;
23360;SDS011;11852;50.082;18.554;2023-04-12T03:15:54;11.0;;;6.0;;
23360;SDS011;11852;50.082;18.554;2023-04-12T03:17:00;11.0;;;6.0;;
23360;SDS011;11852;50.082;18.554;2023-04-12T03:18:07;11.0;;;6.0;;
23360;SDS011;11852;50.082;18.554;2023-04-12T03:19:14;12.0;;;7.0;;
23360;SDS011;11852;50.082;18.554;2023-04-12T03:20:21;11.0;;;6.0;;
23360;SDS011;11852;50.082;18.554;2023-04-12T03:21:28;12.0;;;6.0;;
23360;SDS011;11852;50.082;18.554;2023-04-12T03:22:35;12.0;;;6.0;;
23360;SDS011;11852;50.082;18.554;2023-04-12T03:23:42;13.0;;;7.0;;
23360;SDS011;11852;50.082;18.554;2023-04-12T03:24:48;11.0;;;6.0;;
23360;SDS011;11852;50.082;18.554;2023-04-12T03:25:55;11.0;;;7.0;;
23360;SDS011;11852;50.082;18.554;2023-04-12T03:27:03;11.0;;;7.0;;
23360;SDS011;11852;50.082;18.554;2023-04-12T03:28:09;13.0;;;7.0;;
23360;SDS011;11852;50.082;18.554;2023-04-12T03:29:16;13.0;;;7.0;;
23360;SDS011;11852;50.082;18.554;2023-04-12T03:30:23;12.0;;;7.0;;
23360;SDS011;11852;50.082;18.554;2023-04-12T03:31:30;14.0;;;7.0;;
23360;SDS011;11852;50.082;18.554;2023-04-12T03:32:40;12.0;;;7.0;;
23360;SDS011;11852;50.082;18.554;2023-04-12T03:33:47;11.0;;;7.0;;
23360;SDS011;11852;50.082;18.554;2023-04-12T03:34:53;14.0;;;7.0;;
23360;SDS011;11852;50.082;18.554;2023-04-12T03:36:01;12.0;;;7.0;;
23360;SDS011;11852;50.082;18.554;2023-04-12T03:37:07;14.0;;;8.0;;
23360;SDS011;11852;50.082;18.554;2023-04-12T03:38:14;14.0;;;8.0;;
23360;SDS011;11852;50.082;18.554;2023-04-12T03:39:21;14.0;;;8.0;;
23360;SDS011;11852;50.082;18.554;2023-04-12T03:40:28;14.0;;;8.0;;
23360;SDS011;11852;50.082;18.554;2023-04-12T03:41:35;15.0;;;8.0;;
23360;SDS011;11852;50.082;18.554;2023-04-12T03:42:42;15.0;;;9.0;;
23360;SDS011;11852;50.082;18.554;2023-04-12T03:43:49;16.0;;;10.0;;
23360;SDS011;11852;50.082;18.554;2023-04-12T03:44:56;18.0;;;10.0;;
23360;SDS011;11852;50.082;18.554;2023-04-12T03:46:03;17.0;;;10.0;;
23360;SDS011;11852;50.082;18.554;2023-04-12T03:47:09;18.0;;;11.0;;
23360;SDS011;11852;50.082;18.554;2023-04-12T03:48:16;20.0;;;11.0;;
23360;SDS011;11852;50.082;18.554;2023-04-12T03:49:23;18.0;;;11.0;;
23360;SDS011;11852;50.082;18.554;2023-04-12T03:50:30;17.0;;;11.0;;
23360;SDS011;11852;50.082;18.554;2023-04-12T03:51:38;20.0;;;11.0;;
23360;SDS011;11852;50.082;18.554;2023-04-12T03:52:44;18.0;;;11.0;;
23360;SDS011;11852;50.082;18.554;2023-04-12T03:53:51;20.0;;;11.0;;
23360;SDS011;11852;50.082;18.554;2023-04-12T03:54:58;20.0;;;12.0;;
23360;SDS011;11852;50.082;18.554;2023-04-12T03:56:05;19.0;;;11.0;;
23360;SDS011;11852;50.082;18.554;2023-04-12T03:57:12;21.0;;;11.0;;
23360;SDS011;11852;50.082;18.554;2023-04-12T03:58:19;19.0;;;12.0;;
23360;SDS011;11852;50.082;18.554;2023-04-12T03:59:25;20.0;;;12.0;;
23360;SDS011;11852;50.082;18.554;2023-04-12T04:00:32;19.0;;;11.0;;
23360;SDS011;11852;50.082;18.554;2023-04-12T04:01:39;18.0;;;11.0;;
23360;SDS011;11852;50.082;18.554;2023-04-12T04:02:48;18.0;;;11.0;;
23360;SDS011;11852;50.082;18.554;2023-04-12T04:03:55;19.0;;;10.0;;
23360;SDS011;11852;50.082;18.554;2023-04-12T04:05:02;20.0;;;11.0;;
23360;SDS011;11852;50.082;18.554;2023-04-12T04:06:09;19.0;;;10.0;;
23360;SDS011;11852;50.082;18.554;2023-04-12T04:07:16;19.0;;;10.0;;
23360;SDS011;11852;50.082;18.554;2023-04-12T04:08:23;18.0;;;10.0;;
23360;SDS011;11852;50.082;18.554;2023-04-12T04:09:31;21.0;;;10.0;;
23360;SDS011;11852;50.082;18.554;2023-04-12T04:10:37;18.0;;;10.0;;
23360;SDS011;11852;50.082;18.554;2023-04-12T04:11:43;18.0;;;10.0;;
23360;SDS011;11852;50.082;18.554;2023-04-12T04:12:50;18.0;;;11.0;;
23360;SDS011;11852;50.082;18.554;2023-04-12T04:13:57;21.0;;;10.0;;
23360;SDS011;11852;50.082;18.554;2023-04-12T04:15:04;20.0;;;10.0;;
23360;SDS011;11852;50.082;18.554;2023-04-12T04:16:11;19.0;;;10.0;;
23360;SDS011;11852;50.082;18.554;2023-04-12T04:17:18;19.0;;;10.0;;
23360;SDS011;11852;50.082;18.554;2023-04-12T04:18:25;18.0;;;9.0;;
23360;SDS011;11852;50.082;18.554;2023-04-12T04:19:32;19.0;;;10.0;;
23360;SDS011;11852;50.082;18.554;2023-04-12T04:20:39;19.0;;;10.0;;
23360;SDS011;11852;50.082;18.554;2023-04-12T04:21:46;17.0;;;10.0;;
23360;SDS011;11852;50.082;18.554;2023-04-12T04:22:53;18.0;;;10.0;;
23360;SDS011;11852;50.082;18.554;2023-04-12T04:24:02;23.0;;;12.0;;
23360;SDS011;11852;50.082;18.554;2023-04-12T04:25:10;25.0;;;14.0;;
23360;SDS011;11852;50.082;18.554;2023-04-12T04:26:17;28.0;;;15.0;;
23360;SDS011;11852;50.082;18.554;2023-04-12T04:27:24;30.0;;;15.0;;
23360;SDS011;11852;50.082;18.554;2023-04-12T04:28:31;29.0;;;16.0;;
23360;SDS011;11852;50.082;18.554;2023-04-12T04:29:38;33.0;;;18.0;;
23360;SDS011;11852;50.082;18.554;2023-04-12T04:30:44;34.0;;;18.0;;
23360;SDS011;11852;50.082;18.554;2023-04-12T04:31:51;42.0;;;23.0;;
23360;SDS011;11852;50.082;18.554;2023-04-12T04:32:58;44.0;;;23.0;;
23360;SDS011;11852;50.082;18.554;2023-04-12T04:34:05;53.0;;;29.0;;
23360;SDS011;11852;50.082;18.554;2023-04-12T04:35:12;51.0;;;28.0;;
23360;SDS011;11852;50.082;18.554;2023-04-12T04:36:19;51.0;;;28.0;;
23360;SDS011;11852;50.082;18.554;2023-04-12T04:37:27;43.0;;;24.0;;
23360;SDS011;11852;50.082;18.554;2023-04-12T04:38:34;41.0;;;21.0;;
23360;SDS011;11852;50.082;18.554;2023-04-12T04:39:40;35.0;;;20.0;;
23360;SDS011;11852;50.082;18.554;2023-04-12T04:40:49;33.0;;;19.0;;
23360;SDS011;11852;50.082;18.554;2023-04-12T04:41:54;37.0;;;21.0;;
23360;SDS011;11852;50.082;18.554;2023-04-12T04:43:01;33.0;;;18.0;;
23360;SDS011;11852;50.082;18.554;2023-04-12T04:44:08;31.0;;;17.0;;
23360;SDS011;11852;50.082;18.554;2023-04-12T04:45:15;27.0;;;15.0;;
23360;SDS011;11852;50.082;18.554;2023-04-12T04:46:22;31.0;;;13.0;;
23360;SDS011;11852;50.082;18.554;2023-04-12T04:47:29;24.0;;;13.0;;
23360;SDS011;11852;50.082;18.554;2023-04-12T04:48:36;24.0;;;13.0;;
23360;SDS011;11852;50.082;18.554;2023-04-12T04:49:43;24.0;;;13.0;;
23360;SDS011;11852;50.082;18.554;2023-04-12T04:50:52;24.0;;;13.0;;
23360;SDS011;11852;50.082;18.554;2023-04-12T04:51:59;27.0;;;15.0;;
23360;SDS011;11852;50.082;18.554;2023-04-12T04:53:06;29.0;;;16.0;;
23360;SDS011;11852;50.082;18.554;2023-04-12T04:54:13;28.0;;;15.0;;
23360;SDS011;11852;50.082;18.554;2023-04-12T04:55:20;32.0;;;16.0;;
23360;SDS011;11852;50.082;18.554;2023-04-12T04:56:27;27.0;;;15.0;;
23360;SDS011;11852;50.082;18.554;2023-04-12T04:57:34;28.0;;;14.0;;
23360;SDS011;11852;50.082;18.554;2023-04-12T04:58:42;30.0;;;14.0;;
23360;SDS011;11852;50.082;18.554;2023-04-12T04:59:48;32.0;;;15.0;;
23360;SDS011;11852;50.082;18.554;2023-04-12T05:00:56;29.0;;;14.0;;
23360;SDS011;11852;50.082;18.554;2023-04-12T05:02:02;30.0;;;15.0;;
23360;SDS011;11852;50.082;18.554;2023-04-12T05:03:09;34.0;;;16.0;;
23360;SDS011;11852;50.082;18.554;2023-04-12T05:04:16;35.0;;;17.0;;
23360;SDS011;11852;50.082;18.554;2023-04-12T05:05:23;36.0;;;17.0;;
23360;SDS011;11852;50.082;18.554;2023-04-12T05:06:30;31.0;;;16.0;;
23360;SDS011;11852;50.082;18.554;2023-04-12T05:07:37;30.0;;;15.0;;
23360;SDS011;11852;50.082;18.554;2023-04-12T05:08:43;27.0;;;13.0;;
23360;SDS011;11852;50.082;18.554;2023-04-12T05:09:50;21.0;;;10.0;;
23360;SDS011;11852;50.082;18.554;2023-04-12T05:10:59;23.0;;;10.0;;
23360;SDS011;11852;50.082;18.554;2023-04-12T05:12:06;19.0;;;8.0;;
23360;SDS011;11852;50.082;18.554;2023-04-12T05:13:13;18.0;;;8.0;;
23360;SDS011;11852;50.082;18.554;2023-04-12T05:14:20;15.0;;;8.0;;
23360;SDS011;11852;50.082;18.554;2023-04-12T05:15:28;15.0;;;8.0;;
23360;SDS011;11852;50.082;18.554;2023-04-12T05:16:33;16.0;;;7.0;;
23360;SDS011;11852;50.082;18.554;2023-04-12T05:17:40;12.0;;;7.0;;
23360;SDS011;11852;50.082;18.554;2023-04-12T05:18:47;14.0;;;7.0;;
23360;SDS011;11852;50.082;18.554;2023-04-12T05:19:54;14.0;;;7.0;;
23360;SDS011;11852;50.082;18.554;2023-04-12T05:21:04;14.0;;;7.0;;
23360;SDS011;11852;50.082;18.554;2023-04-12T05:22:11;13.0;;;7.0;;
23360;SDS011;11852;50.082;18.554;2023-04-12T05:23:17;13.0;;;6.0;;
23360;SDS011;11852;50.082;18.554;2023-04-12T05:24:24;12.0;;;6.0;;
23360;SDS011;11852;50.082;18.554;2023-04-12T05:25:31;12.0;;;6.0;;
23360;SDS011;11852;50.082;18.554;2023-04-12T05:26:38;14.0;;;6.0;;
23360;SDS011;11852;50.082;18.554;2023-04-12T05:27:45;14.0;;;6.0;;
23360;SDS011;11852;50.082;18.554;2023-04-12T05:28:52;14.0;;;6.0;;
23360;SDS011;11852;50.082;18.554;2023-04-12T05:29:59;12.0;;;6.0;;
23360;SDS011;11852;50.082;18.554;2023-04-12T05:31:06;12.0;;;6.0;;
23360;SDS011;11852;50.082;18.554;2023-04-12T05:32:13;12.0;;;6.0;;
23360;SDS011;11852;50.082;18.554;2023-04-12T05:33:20;11.0;;;6.0;;
23360;SDS011;11852;50.082;18.554;2023-04-12T05:34:27;11.0;;;5.0;;
23360;SDS011;11852;50.082;18.554;2023-04-12T05:35:33;13.0;;;6.0;;
23360;SDS011;11852;50.082;18.554;2023-04-12T05:36:40;12.0;;;6.0;;
23360;SDS011;11852;50.082;18.554;2023-04-12T05:37:47;10.0;;;5.0;;
23360;SDS011;11852;50.082;18.554;2023-04-12T05:38:54;12.0;;;6.0;;
23360;SDS011;11852;50.082;18.554;2023-04-12T05:40:01;13.0;;;5.0;;
23360;SDS011;11852;50.082;18.554;2023-04-12T05:41:08;12.0;;;5.0;;
23360;SDS011;11852;50.082;18.554;2023-04-12T05:42:17;11.0;;;5.0;;
23360;SDS011;11852;50.082;18.554;2023-04-12T05:43:23;11.0;;;5.0;;
23360;SDS011;11852;50.082;18.554;2023-04-12T05:44:33;12.0;;;5.0;;
23360;SDS011;11852;50.082;18.554;2023-04-12T05:45:38;12.0;;;5.0;;
23360;SDS011;11852;50.082;18.554;2023-04-12T05:46:44;11.0;;;5.0;;
23360;SDS011;11852;50.082;18.554;2023-04-12T05:47:52;12.0;;;6.0;;
23360;SDS011;11852;50.082;18.554;2023-04-12T05:48:58;13.0;;;6.0;;
23360;SDS011;11852;50.082;18.554;2023-04-12T05:50:05;13.0;;;6.0;;
23360;SDS011;11852;50.082;18.554;2023-04-12T05:51:12;13.0;;;6.0;;
23360;SDS011;11852;50.082;18.554;2023-04-12T05:52:19;14.0;;;6.0;;
23360;SDS011;11852;50.082;18.554;2023-04-12T05:53:26;14.0;;;6.0;;
23360;SDS011;11852;50.082;18.554;2023-04-12T05:54:33;12.0;;;6.0;;
23360;SDS011;11852;50.082;18.554;2023-04-12T05:55:40;13.0;;;6.0;;
23360;SDS011;11852;50.082;18.554;2023-04-12T05:56:46;12.0;;;6.0;;
23360;SDS011;11852;50.082;18.554;2023-04-12T05:57:53;11.0;;;6.0;;
23360;SDS011;11852;50.082;18.554;2023-04-12T05:59:00;13.0;;;6.0;;
23360;SDS011;11852;50.082;18.554;2023-04-12T06:00:07;13.0;;;6.0;;
23360;SDS011;11852;50.082;18.554;2023-04-12T06:01:14;12.0;;;6.0;;
23360;SDS011;11852;50.082;18.554;2023-04-12T06:02:21;13.0;;;7.0;;
23360;SDS011;11852;50.082;18.554;2023-04-12T06:03:28;14.0;;;7.0;;
23360;SDS011;11852;50.082;18.554;2023-04-12T06:04:35;14.0;;;7.0;;
23360;SDS011;11852;50.082;18.554;2023-04-12T06:05:42;16.0;;;8.0;;
23360;SDS011;11852;50.082;18.554;2023-04-12T06:06:49;15.0;;;8.0;;
23360;SDS011;11852;50.082;18.554;2023-04-12T06:07:56;15.0;;;8.0;;
23360;SDS011;11852;50.082;18.554;2023-04-12T06:09:03;15.0;;;8.0;;
23360;SDS011;11852;50.082;18.554;2023-04-12T06:10:09;14.0;;;7.0;;
23360;SDS011;11852;50.082;18.554;2023-04-12T06:11:19;15.0;;;8.0;;
23360;SDS011;11852;50.082;18.554;2023-04-12T06:12:26;13.0;;;7.0;;
23360;SDS011;11852;50.082;18.554;2023-04-12T06:13:34;15.0;;;7.0;;
23360;SDS011;11852;50.082;18.554;2023-04-12T06:14:41;14.0;;;7.0;;
23360;SDS011;11852;50.082;18.554;2023-04-12T06:15:48;13.0;;;7.0;;
23360;SDS011;11852;50.082;18.554;2023-04-12T06:16:55;16.0;;;7.0;;
23360;SDS011;11852;50.082;18.554;2023-04-12T06:18:01;14.0;;;7.0;;
23360;SDS011;11852;50.082;18.554;2023-04-12T06:19:08;13.0;;;7.0;;
23360;SDS011;11852;50.082;18.554;2023-04-12T06:20:15;12.0;;;7.0;;
23360;SDS011;11852;50.082;18.554;2023-04-12T06:21:23;13.0;;;6.0;;
23360;SDS011;11852;50.082;18.554;2023-04-12T06:22:32;16.0;;;6.0;;
23360;SDS011;11852;50.082;18.554;2023-04-12T06:23:39;13.0;;;6.0;;
23360;SDS011;11852;50.082;18.554;2023-04-12T06:24:49;13.0;;;6.0;;
23360;SDS011;11852;50.082;18.554;2023-04-12T06:25:56;14.0;;;6.0;;
23360;SDS011;11852;50.082;18.554;2023-04-12T06:27:03;13.0;;;6.0;;
23360;SDS011;11852;50.082;18.554;2023-04-12T06:28:11;13.0;;;6.0;;
23360;SDS011;11852;50.082;18.554;2023-04-12T06:29:17;13.0;;;6.0;;
23360;SDS011;11852;50.082;18.554;2023-04-12T06:30:24;12.0;;;6.0;;
23360;SDS011;11852;50.082;18.554;2023-04-12T06:31:31;12.0;;;5.0;;
23360;SDS011;11852;50.082;18.554;2023-04-12T06:32:38;12.0;;;5.0;;
23360;SDS011;11852;50.082;18.554;2023-04-12T06:33:49;13.0;;;6.0;;
23360;SDS011;11852;50.082;18.554;2023-04-12T06:34:58;13.0;;;5.0;;
23360;SDS011;11852;50.082;18.554;2023-04-12T06:36:05;11.0;;;5.0;;
23360;SDS011;11852;50.082;18.554;2023-04-12T06:37:12;12.0;;;5.0;;
23360;SDS011;11852;50.082;18.554;2023-04-12T06:38:19;13.0;;;5.0;;
23360;SDS011;11852;50.082;18.554;2023-04-12T06:39:26;13.0;;;6.0;;
23360;SDS011;11852;50.082;18.554;2023-04-12T06:40:33;14.0;;;5.0;;
23360;SDS011;11852;50.082;18.554;2023-04-12T06:41:40;13.0;;;6.0;;
23360;SDS011;11852;50.082;18.554;2023-04-12T06:42:47;13.0;;;6.0;;
23360;SDS011;11852;50.082;18.554;2023-04-12T06:43:54;13.0;;;6.0;;
23360;SDS011;11852;50.082;18.554;2023-04-12T06:45:01;13.0;;;5.0;;
23360;SDS011;11852;50.082;18.554;2023-04-12T06:46:08;11.0;;;5.0;;
23360;SDS011;11852;50.082;18.554;2023-04-12T06:47:15;11.0;;;5.0;;
23360;SDS011;11852;50.082;18.554;2023-04-12T06:48:22;12.0;;;4.0;;
23360;SDS011;11852;50.082;18.554;2023-04-12T06:49:28;12.0;;;5.0;;
23360;SDS011;11852;50.082;18.554;2023-04-12T06:50:35;11.0;;;5.0;;
23360;SDS011;11852;50.082;18.554;2023-04-12T06:51:43;11.0;;;5.0;;
23360;SDS011;11852;50.082;18.554;2023-04-12T06:52:50;11.0;;;5.0;;
23360;SDS011;11852;50.082;18.554;2023-04-12T06:53:57;12.0;;;5.0;;
23360;SDS011;11852;50.082;18.554;2023-04-12T06:55:04;11.0;;;4.0;;
23360;SDS011;11852;50.082;18.554;2023-04-12T06:56:11;11.0;;;5.0;;
23360;SDS011;11852;50.082;18.554;2023-04-12T06:57:18;12.0;;;5.0;;
23360;SDS011;11852;50.082;18.554;2023-04-12T06:58:25;11.0;;;5.0;;
23360;SDS011;11852;50.082;18.554;2023-04-12T06:59:32;10.0;;;5.0;;
23360;SDS011;11852;50.082;18.554;2023-04-12T07:00:39;11.0;;;5.0;;